createdAt,value
2023-05-21T00:00:54.500Z,75.22
2023-05-21T00:03:27.232Z,75.16
2023-05-21T00:05:58.031Z,75.17
2023-05-21T00:08:26.912Z,75.47
2023-05-21T00:10:57.433Z,75.47
2023-05-21T00:13:26.330Z,75.41
2023-05-21T00:15:55.125Z,75.34
2023-05-21T00:18:25.858Z,75.24
2023-05-21T00:20:54.662Z,75.40
2023-05-21T00:23:26.646Z,75.07
2023-05-21T00:25:55.577Z,75.47
2023-05-21T00:28:24.446Z,75.23
2023-05-21T00:30:53.324Z,75.28
2023-05-21T00:33:26.796Z,75.30
2023-05-21T00:35:55.674Z,75.27
2023-05-21T00:38:28.236Z,75.28
2023-05-21T00:40:57.780Z,75.25
2023-05-21T00:43:26.742Z,75.57
2023-05-21T00:45:56.766Z,75.52
2023-05-21T00:48:26.201Z,75.33
2023-05-21T00:50:55.327Z,75.59
2023-05-21T00:53:25.910Z,75.85
2023-05-21T00:55:55.016Z,75.80
2023-05-21T00:58:24.112Z,76.29
2023-05-21T01:00:56.832Z,76.14
2023-05-21T01:03:26.428Z,76.72
2023-05-21T01:06:00.389Z,76.62
2023-05-21T01:08:31.242Z,76.98
2023-05-21T01:11:01.141Z,76.84
2023-05-21T01:13:32.325Z,77.16
2023-05-21T01:16:02.013Z,77.00
2023-05-21T01:18:35.616Z,77.04
2023-05-21T01:21:05.590Z,77.00
2023-05-21T01:23:36.130Z,76.75
2023-05-21T01:26:04.993Z,76.86
2023-05-21T01:28:34.837Z,76.85
2023-05-21T01:31:13.392Z,77.04
2023-05-21T01:33:49.217Z,77.08
2023-05-21T01:36:24.559Z,77.17
2023-05-21T01:39:03.227Z,77.66
2023-05-21T01:41:38.424Z,77.62
2023-05-21T01:44:08.780Z,77.15
2023-05-21T01:46:38.789Z,77.88
2023-05-21T01:49:09.351Z,77.87
2023-05-21T01:51:38.704Z,78.32
2023-05-21T01:54:08.954Z,78.33
2023-05-21T01:56:37.909Z,78.30
2023-05-21T01:59:07.041Z,78.74
2023-05-21T02:01:36.016Z,78.98
2023-05-21T02:04:05.369Z,78.91
2023-05-21T02:06:36.265Z,79.31
2023-05-21T02:09:05.213Z,79.48
2023-05-21T02:11:36.160Z,79.16
2023-05-21T02:14:05.523Z,79.47
2023-05-21T02:16:34.944Z,79.57
2023-05-21T02:19:05.218Z,79.98
2023-05-21T02:21:34.250Z,79.85
2023-05-21T02:24:03.024Z,79.62
2023-05-21T02:26:32.217Z,79.37
2023-05-21T02:29:03.245Z,79.69
2023-05-21T02:31:32.477Z,79.57
2023-05-21T02:34:01.356Z,79.99
2023-05-21T02:36:33.661Z,79.42
2023-05-21T02:39:02.440Z,79.86
2023-05-21T02:41:31.187Z,79.89
2023-05-21T02:44:01.635Z,80.25
2023-05-21T02:46:30.668Z,80.51
2023-05-21T02:49:00.065Z,80.48
2023-05-21T02:51:29.149Z,80.32
2023-05-21T02:53:57.980Z,80.76
2023-05-21T02:56:28.925Z,80.59
2023-05-21T02:58:57.989Z,80.48
2023-05-21T03:01:28.361Z,80.67
2023-05-21T03:03:59.101Z,80.32
2023-05-21T03:06:28.016Z,81.00
2023-05-21T03:08:56.800Z,80.63
2023-05-21T03:11:26.222Z,80.78
2023-05-21T03:13:55.087Z,80.37
2023-05-21T03:16:24.324Z,80.54
2023-05-21T03:18:54.763Z,80.30
2023-05-21T03:21:23.915Z,80.24
2023-05-21T03:23:53.253Z,79.81
2023-05-21T03:26:22.283Z,79.98
2023-05-21T03:28:51.215Z,80.03
2023-05-21T03:31:20.378Z,80.29
2023-05-21T03:33:57.588Z,80.00
2023-05-21T03:36:30.586Z,79.82
2023-05-21T03:38:59.989Z,79.99
2023-05-21T03:41:28.873Z,79.72
2023-05-21T03:44:04.880Z,80.25
2023-05-21T03:46:42.945Z,80.08
2023-05-21T03:49:22.102Z,79.89
2023-05-21T03:51:54.325Z,80.12
2023-05-21T03:54:25.032Z,79.68
2023-05-21T03:56:57.198Z,79.88
2023-05-21T03:59:27.873Z,79.62
2023-05-21T04:01:57.887Z,79.44
2023-05-21T04:04:29.782Z,79.48
2023-05-21T04:06:58.764Z,79.75
2023-05-21T04:09:27.877Z,79.71
2023-05-21T04:11:57.074Z,79.89
2023-05-21T04:14:25.815Z,79.48
2023-05-21T04:16:54.813Z,79.81
2023-05-21T04:19:23.721Z,79.65
2023-05-21T04:21:54.116Z,79.28
2023-05-21T04:24:23.751Z,79.71
2023-05-21T04:27:03.602Z,79.18
2023-05-21T04:29:33.818Z,79.10
2023-05-21T04:32:03.497Z,79.17
2023-05-21T04:34:34.266Z,78.62
2023-05-21T04:37:05.273Z,78.67
2023-05-21T04:39:35.211Z,78.23
2023-05-21T04:42:04.292Z,78.43
2023-05-21T04:44:33.915Z,78.27
2023-05-21T04:47:02.977Z,77.83
2023-05-21T04:49:31.897Z,77.59
2023-05-21T04:52:02.150Z,77.70
2023-05-21T04:54:32.521Z,77.29
2023-05-21T04:57:01.400Z,77.19
2023-05-21T04:59:30.875Z,77.00
2023-05-21T05:01:59.697Z,76.59
2023-05-21T05:04:28.557Z,76.39
2023-05-21T05:06:57.650Z,76.22
2023-05-21T05:09:26.509Z,75.60
2023-05-21T05:11:56.838Z,75.01
2023-05-21T05:14:26.891Z,74.42
2023-05-21T05:19:29.960Z,73.09
2023-05-21T05:21:59.131Z,72.32
2023-05-21T05:24:27.917Z,71.93
2023-05-21T05:26:58.228Z,71.20
2023-05-21T05:29:27.201Z,70.72
2023-05-21T05:31:56.069Z,70.50
2023-05-21T05:34:24.856Z,69.64
2023-05-21T05:36:53.921Z,69.07
2023-05-21T05:39:22.727Z,68.72
2023-05-21T05:41:52.622Z,68.18
2023-05-21T05:44:24.492Z,67.81
2023-05-21T05:46:53.756Z,67.28
2023-05-21T05:49:22.567Z,66.56
2023-05-21T05:51:51.639Z,66.22
2023-05-21T05:54:20.814Z,65.65
2023-05-21T05:56:49.773Z,64.91
2023-05-21T05:59:18.548Z,65.12
2023-05-21T06:01:52.736Z,65.15
2023-05-21T06:04:23.069Z,64.71
2023-05-21T06:06:52.665Z,64.12
2023-05-21T06:09:22.266Z,64.03
2023-05-21T06:11:51.524Z,63.87
2023-05-21T06:14:20.423Z,63.87
2023-05-21T06:16:52.076Z,63.23
2023-05-21T06:19:21.700Z,62.70
2023-05-21T06:21:50.656Z,61.77
2023-05-21T06:24:19.468Z,61.32
2023-05-21T06:26:48.815Z,60.82
2023-05-21T06:29:18.370Z,60.66
2023-05-21T06:31:51.313Z,60.67
2023-05-21T06:34:21.697Z,60.69
2023-05-21T06:36:50.975Z,60.63
2023-05-21T06:39:19.836Z,60.58
2023-05-21T06:41:48.729Z,60.59
2023-05-21T06:44:27.458Z,60.67
2023-05-21T06:47:10.577Z,60.21
2023-05-21T06:49:41.178Z,60.04
2023-05-21T06:52:10.120Z,60.06
2023-05-21T06:54:39.216Z,59.95
2023-05-21T06:57:10.892Z,58.86
2023-05-21T06:59:39.780Z,57.87
2023-05-21T07:02:08.936Z,56.66
2023-05-21T07:04:38.237Z,55.90
2023-05-21T07:07:09.148Z,55.66
2023-05-21T07:09:39.088Z,54.84
2023-05-21T07:12:09.912Z,54.35
2023-05-21T07:14:39.995Z,53.91
2023-05-21T07:17:09.025Z,53.62
2023-05-21T07:19:38.389Z,52.96
2023-05-21T07:22:08.772Z,52.88
2023-05-21T07:24:40.616Z,52.60
2023-05-21T07:27:24.669Z,52.71
2023-05-21T07:29:55.852Z,52.56
2023-05-21T07:32:24.897Z,52.68
2023-05-21T07:34:54.439Z,52.65
2023-05-21T07:37:28.182Z,52.44
2023-05-21T07:39:58.932Z,51.66
2023-05-21T07:42:28.377Z,51.26
2023-05-21T07:44:59.028Z,51.52
2023-05-21T07:47:29.568Z,51.98
2023-05-21T07:49:58.930Z,51.57
2023-05-21T07:52:29.852Z,51.58
2023-05-21T07:54:58.851Z,51.62
2023-05-21T07:57:28.377Z,51.86
2023-05-21T08:00:01.688Z,51.73
2023-05-21T08:02:35.140Z,50.82
2023-05-21T08:05:04.214Z,51.30
2023-05-21T08:07:34.431Z,46.91
2023-05-21T08:10:03.469Z,45.60
2023-05-21T08:12:34.174Z,44.40
2023-05-21T08:15:03.300Z,44.29
2023-05-21T08:17:36.216Z,43.87
2023-05-21T08:20:06.020Z,43.78
2023-05-21T08:22:38.736Z,43.57
2023-05-21T08:25:09.601Z,43.32
2023-05-21T08:27:38.773Z,42.95
2023-05-21T08:30:10.555Z,42.34
2023-05-21T08:32:40.384Z,42.53
2023-05-21T08:35:10.046Z,42.21
2023-05-21T08:37:59.037Z,42.36
2023-05-21T08:40:44.075Z,42.89
2023-05-21T08:43:14.722Z,42.27
2023-05-21T08:45:54.689Z,41.93
2023-05-21T08:48:26.280Z,42.79
2023-05-21T08:50:55.770Z,42.18
2023-05-21T08:53:35.657Z,42.81
2023-05-21T08:56:08.269Z,42.19
2023-05-21T08:58:48.223Z,42.24
2023-05-21T09:01:21.941Z,41.90
2023-05-21T09:04:12.231Z,41.82
2023-05-21T09:06:48.979Z,41.04
2023-05-21T09:09:29.848Z,41.79
2023-05-21T09:11:58.623Z,42.14
2023-05-21T09:14:28.400Z,42.04
2023-05-21T09:17:08.688Z,41.67
2023-05-21T09:19:37.788Z,41.80
2023-05-21T09:22:06.904Z,41.75
2023-05-21T09:24:37.554Z,42.02
2023-05-21T09:27:08.721Z,41.98
2023-05-21T09:29:37.608Z,42.19
2023-05-21T09:32:12.443Z,41.44
2023-05-21T09:34:42.922Z,41.41
2023-05-21T09:37:23.833Z,40.68
2023-05-21T09:39:58.680Z,40.54
2023-05-21T09:42:32.258Z,39.85
2023-05-21T09:45:01.682Z,39.92
2023-05-21T09:47:31.520Z,40.59
2023-05-21T09:50:00.560Z,40.22
2023-05-21T09:52:30.563Z,39.93
2023-05-21T09:55:01.667Z,39.99
2023-05-21T09:57:31.060Z,40.20
2023-05-21T09:59:59.862Z,40.31
2023-05-21T10:02:31.842Z,39.97
2023-05-21T10:05:00.880Z,41.08
2023-05-21T10:07:30.301Z,40.65
2023-05-21T10:10:02.735Z,40.70
2023-05-21T10:12:36.814Z,40.71
2023-05-21T10:15:10.042Z,40.00
2023-05-21T10:17:41.045Z,39.88
2023-05-21T10:20:13.349Z,39.70
2023-05-21T10:22:42.894Z,39.40
2023-05-21T10:25:15.480Z,39.25
2023-05-21T10:27:44.486Z,39.32
2023-05-21T10:30:13.652Z,39.51
2023-05-21T10:32:43.204Z,39.96
2023-05-21T10:35:16.154Z,39.86
2023-05-21T10:37:46.106Z,40.16
2023-05-21T10:40:16.480Z,39.87
2023-05-21T10:43:17.622Z,39.73
2023-05-21T10:46:06.280Z,40.86
2023-05-21T10:48:55.899Z,40.79
2023-05-21T10:51:29.198Z,40.95
2023-05-21T10:54:18.847Z,41.47
2023-05-21T10:57:02.505Z,42.23
2023-05-21T10:59:42.579Z,42.34
2023-05-21T11:02:15.298Z,42.15
2023-05-21T11:04:49.337Z,42.19
2023-05-21T11:07:25.272Z,42.21
2023-05-21T11:09:56.472Z,42.20
2023-05-21T11:12:27.513Z,42.28
2023-05-21T11:14:59.790Z,42.42
2023-05-21T11:17:40.637Z,43.08
2023-05-21T11:20:15.384Z,43.12
2023-05-21T11:22:44.328Z,43.98
2023-05-21T11:25:13.754Z,44.61
2023-05-21T11:27:44.172Z,44.09
2023-05-21T11:30:17.885Z,45.13
2023-05-21T11:33:12.694Z,45.72
2023-05-21T11:35:58.903Z,47.08
2023-05-21T11:38:31.200Z,47.65
2023-05-21T11:41:04.531Z,48.09
2023-05-21T11:43:35.548Z,49.82
2023-05-21T11:46:04.822Z,51.72
2023-05-21T11:48:34.161Z,53.46
2023-05-21T11:51:03.371Z,55.59
2023-05-21T11:53:32.444Z,56.77
2023-05-21T11:56:04.407Z,58.22
2023-05-21T11:58:34.775Z,58.62
2023-05-21T12:01:03.656Z,58.99
2023-05-21T12:03:36.372Z,59.62
2023-05-21T12:06:07.121Z,59.49
2023-05-21T12:08:36.082Z,58.30
2023-05-21T12:11:07.874Z,55.69
2023-05-21T12:13:38.415Z,53.53
2023-05-21T12:16:08.192Z,52.18
2023-05-21T12:18:38.754Z,49.49
2023-05-21T12:21:07.623Z,48.76
2023-05-21T12:23:36.591Z,48.16
2023-05-21T12:26:06.047Z,47.84
2023-05-21T12:28:34.926Z,48.27
2023-05-21T12:31:05.305Z,46.87
2023-05-21T12:33:36.037Z,46.51
2023-05-21T12:36:05.514Z,46.64
2023-05-21T12:38:34.336Z,46.44
2023-05-21T12:41:05.764Z,46.13
2023-05-21T12:43:35.151Z,46.28
2023-05-21T12:46:05.979Z,45.79
2023-05-21T12:48:34.792Z,46.06
2023-05-21T12:51:03.525Z,45.00
2023-05-21T12:53:38.983Z,45.17
2023-05-21T12:56:12.079Z,44.38
2023-05-21T12:58:41.337Z,44.12
2023-05-21T13:01:11.619Z,43.54
2023-05-21T13:03:42.927Z,43.70
2023-05-21T13:06:12.077Z,43.12
2023-05-21T13:08:40.685Z,42.49
2023-05-21T13:11:09.439Z,41.94
2023-05-21T13:13:38.301Z,42.47
2023-05-21T13:16:07.672Z,42.60
2023-05-21T13:18:38.074Z,43.99
2023-05-21T13:21:07.286Z,43.97
2023-05-21T13:23:36.214Z,42.51
2023-05-21T13:26:05.493Z,43.43
2023-05-21T13:28:33.956Z,43.62
2023-05-21T13:31:02.933Z,41.38
2023-05-21T13:33:32.954Z,40.26
2023-05-21T13:36:03.369Z,42.35
2023-05-21T13:38:32.317Z,43.72
2023-05-21T13:41:01.416Z,45.64
2023-05-21T13:43:30.312Z,47.69
2023-05-21T13:45:59.117Z,48.81
2023-05-21T13:48:28.008Z,50.46
2023-05-21T13:50:56.805Z,51.63
2023-05-21T13:53:27.687Z,53.20
2023-05-21T13:55:56.715Z,54.70
2023-05-21T13:58:25.394Z,56.79
2023-05-21T14:00:54.255Z,58.64
2023-05-21T14:03:23.176Z,60.37
2023-05-21T14:05:53.843Z,62.32
2023-05-21T14:08:23.971Z,63.89
2023-05-21T14:10:54.735Z,64.75
2023-05-21T14:13:24.209Z,65.86
2023-05-21T14:15:53.821Z,65.96
2023-05-21T14:18:22.670Z,65.91
2023-05-21T14:20:51.431Z,65.82
2023-05-21T14:23:20.250Z,66.32
2023-05-21T14:25:59.107Z,66.64
2023-05-21T14:28:27.931Z,67.51
2023-05-21T14:30:57.238Z,67.56
2023-05-21T14:33:26.178Z,68.58
2023-05-21T14:35:54.880Z,69.43
2023-05-21T14:38:23.941Z,70.61
2023-05-21T14:40:52.734Z,71.41
2023-05-21T14:43:23.165Z,72.43
2023-05-21T14:45:52.518Z,72.61
2023-05-21T14:48:23.573Z,72.94
2023-05-21T14:50:52.520Z,74.56
2023-05-21T14:53:21.688Z,75.48
2023-05-21T14:55:50.799Z,75.12
2023-05-21T14:58:19.509Z,75.47
2023-05-21T15:00:49.780Z,76.16
2023-05-21T15:03:18.716Z,76.45
2023-05-21T15:05:47.476Z,76.59
2023-05-21T15:08:19.171Z,76.91
2023-05-21T15:10:48.965Z,77.69
2023-05-21T15:13:38.459Z,78.00
2023-05-21T15:16:19.484Z,78.45
2023-05-21T15:18:51.211Z,78.03
2023-05-21T15:21:21.478Z,78.08
2023-05-21T15:23:53.590Z,77.77
2023-05-21T15:26:26.217Z,77.39
2023-05-21T15:28:55.615Z,77.00
2023-05-21T15:31:26.953Z,76.60
2023-05-21T15:33:58.459Z,76.42
2023-05-21T15:36:28.440Z,76.03
2023-05-21T15:38:57.197Z,75.71
2023-05-21T15:41:26.246Z,75.93
2023-05-21T15:43:55.017Z,75.76
2023-05-21T15:46:23.809Z,75.52
2023-05-21T15:48:53.935Z,75.85
2023-05-21T15:51:22.707Z,75.93
2023-05-21T15:53:51.473Z,76.29
2023-05-21T15:56:20.329Z,76.50
2023-05-21T15:58:49.287Z,76.57
2023-05-21T16:01:18.288Z,76.60
2023-05-21T16:03:47.192Z,75.84
2023-05-21T16:06:17.633Z,75.52
2023-05-21T16:08:46.530Z,75.04
2023-05-21T16:11:15.605Z,75.03
2023-05-21T16:13:44.576Z,74.85
2023-05-21T16:16:13.928Z,74.81
2023-05-21T16:18:42.862Z,74.68
2023-05-21T16:21:11.665Z,74.55
2023-05-21T16:23:42.300Z,73.99
2023-05-21T16:26:11.919Z,73.46
2023-05-21T16:28:40.740Z,72.72
2023-05-21T16:31:11.338Z,72.51
2023-05-21T16:33:40.609Z,71.67
2023-05-21T16:36:09.611Z,71.47
2023-05-21T16:38:38.447Z,71.15
2023-05-21T16:41:08.785Z,71.38
2023-05-21T16:43:37.694Z,71.01
2023-05-21T16:46:06.497Z,70.69
2023-05-21T16:48:37.418Z,70.16
2023-05-21T16:51:07.214Z,69.84
2023-05-21T16:53:35.994Z,69.64
2023-05-21T16:56:04.986Z,70.11
2023-05-21T16:58:36.332Z,69.75
2023-05-21T17:01:05.313Z,69.73
2023-05-21T17:03:34.258Z,69.38
2023-05-21T17:06:03.346Z,69.16
2023-05-21T17:08:32.138Z,69.32
2023-05-21T17:11:01.069Z,69.22
2023-05-21T17:13:29.787Z,68.98
2023-05-21T17:16:00.227Z,68.71
2023-05-21T17:18:29.076Z,68.96
2023-05-21T17:20:59.214Z,68.93
2023-05-21T17:23:28.056Z,69.15
2023-05-21T17:25:56.843Z,69.51
2023-05-21T17:28:25.774Z,69.89
2023-05-21T17:30:54.560Z,70.76
2023-05-21T17:33:25.296Z,70.85
2023-05-21T17:35:54.369Z,70.60
2023-05-21T17:38:23.152Z,70.84
2023-05-21T17:40:52.160Z,70.85
2023-05-21T17:43:20.939Z,70.65
2023-05-21T17:45:49.908Z,70.91
2023-05-21T17:48:18.752Z,71.21
2023-05-21T17:50:49.433Z,71.59
2023-05-21T17:53:21.023Z,71.61
2023-05-21T17:55:49.861Z,72.02
2023-05-21T17:58:18.668Z,71.92
2023-05-21T18:00:47.603Z,71.72
2023-05-21T18:03:16.513Z,71.69
2023-05-21T18:05:45.433Z,71.68
2023-05-21T18:08:15.683Z,71.98
2023-05-21T18:10:45.528Z,71.90
2023-05-21T18:13:14.368Z,71.79
2023-05-21T18:15:43.324Z,71.68
2023-05-21T18:18:19.830Z,71.39
2023-05-21T18:20:50.468Z,71.69
2023-05-21T18:23:20.928Z,71.89
2023-05-21T18:25:49.984Z,72.11
2023-05-21T18:28:18.826Z,72.55
2023-05-21T18:30:47.730Z,72.92
2023-05-21T18:33:17.347Z,73.95
2023-05-21T18:35:46.230Z,75.03
2023-05-21T18:38:14.966Z,75.13
2023-05-21T18:40:45.252Z,75.44
2023-05-21T18:43:14.457Z,75.22
2023-05-21T18:45:43.408Z,75.25
2023-05-21T18:48:13.213Z,75.14
2023-05-21T18:50:42.183Z,75.35
2023-05-21T18:53:11.957Z,75.68
2023-05-21T18:55:40.780Z,76.22
2023-05-21T18:58:10.954Z,76.28
2023-05-21T19:00:40.988Z,76.33
2023-05-21T19:03:09.914Z,75.99
2023-05-21T19:05:38.774Z,75.84
2023-05-21T19:08:07.954Z,75.91
2023-05-21T19:10:39.607Z,76.63
2023-05-21T19:13:08.784Z,76.78
2023-05-21T19:15:39.085Z,76.76
2023-05-21T19:18:08.584Z,76.82
2023-05-21T19:20:38.674Z,76.78
2023-05-21T19:23:07.867Z,76.89
2023-05-21T19:25:36.748Z,76.64
2023-05-21T19:28:05.612Z,76.64
2023-05-21T19:30:36.854Z,76.75
2023-05-21T19:33:07.436Z,76.89
2023-05-21T19:35:36.411Z,76.57
2023-05-21T19:38:05.538Z,76.44
2023-05-21T19:40:35.272Z,76.77
2023-05-21T19:43:04.461Z,76.85
2023-05-21T19:45:33.617Z,77.13
2023-05-21T19:48:02.596Z,76.95
2023-05-21T19:50:32.889Z,77.11
2023-05-21T19:53:01.691Z,77.40
2023-05-21T19:55:34.937Z,77.78
2023-05-21T19:58:06.831Z,78.15
2023-05-21T20:00:35.945Z,78.33
2023-05-21T20:03:04.728Z,78.11
2023-05-21T20:05:35.249Z,78.05
2023-05-21T20:08:04.161Z,78.09
2023-05-21T20:10:36.190Z,78.35
2023-05-21T20:13:05.155Z,77.92
2023-05-21T20:15:34.452Z,77.90
2023-05-21T20:18:03.432Z,78.06
2023-05-21T20:20:35.076Z,78.15
2023-05-21T20:23:05.522Z,78.04
2023-05-21T20:25:34.646Z,77.92
2023-05-21T20:28:05.069Z,78.06
2023-05-21T20:30:35.300Z,78.16
2023-05-21T20:33:04.795Z,78.46
2023-05-21T20:35:33.404Z,78.68
2023-05-21T20:38:02.275Z,78.86
2023-05-21T20:40:33.018Z,78.93
2023-05-21T20:43:01.882Z,78.98
2023-05-21T20:45:31.027Z,78.81
2023-05-21T20:48:01.617Z,79.02
2023-05-21T20:50:30.509Z,78.93
2023-05-21T20:52:59.795Z,78.74
2023-05-21T20:55:28.787Z,78.67
2023-05-21T20:57:58.980Z,78.41
2023-05-21T21:00:29.111Z,78.27
2023-05-21T21:02:59.404Z,78.22
2023-05-21T21:05:28.513Z,78.33
2023-05-21T21:07:57.536Z,78.30
2023-05-21T21:10:26.484Z,78.45
2023-05-21T21:12:55.335Z,78.54
2023-05-21T21:15:25.686Z,78.67
2023-05-21T21:17:54.593Z,78.73
2023-05-21T21:20:23.385Z,78.96
2023-05-21T21:22:52.464Z,79.36
2023-05-21T21:25:21.241Z,79.64
2023-05-21T21:27:50.040Z,79.97
2023-05-21T21:30:19.070Z,80.19
2023-05-21T21:32:49.836Z,80.38
2023-05-21T21:35:18.708Z,80.75
2023-05-21T21:37:47.513Z,80.92
2023-05-21T21:40:16.434Z,80.93
2023-05-21T21:42:45.235Z,80.84
2023-05-21T21:45:14.148Z,81.04
2023-05-21T21:47:42.896Z,81.12
2023-05-21T21:50:13.412Z,81.08
2023-05-21T21:52:42.528Z,81.22
2023-05-21T21:55:11.998Z,81.54
2023-05-21T21:57:40.572Z,81.72
2023-05-21T22:00:16.163Z,81.41
2023-05-21T22:02:46.865Z,81.23
2023-05-21T22:05:17.350Z,80.79
2023-05-21T22:07:47.237Z,80.94
2023-05-21T22:10:16.406Z,81.38
2023-05-21T22:12:46.345Z,81.33
2023-05-21T22:15:24.354Z,81.34
2023-05-21T22:17:53.731Z,81.37
2023-05-21T22:20:24.142Z,81.52
2023-05-21T22:22:54.780Z,81.88
2023-05-21T22:25:25.029Z,82.21
2023-05-21T22:27:54.181Z,82.75
2023-05-21T22:30:23.084Z,82.67
2023-05-21T22:32:51.968Z,83.05
2023-05-21T22:35:21.304Z,83.18
2023-05-21T22:37:51.510Z,83.25
2023-05-21T22:40:20.354Z,83.53
2023-05-21T22:42:49.329Z,83.59
2023-05-21T22:45:18.992Z,83.66
2023-05-21T22:47:48.361Z,83.55
2023-05-21T22:50:29.484Z,83.78
2023-05-21T22:53:00.127Z,83.72
2023-05-21T22:55:29.103Z,83.58
2023-05-21T22:57:58.111Z,83.75
2023-05-21T23:00:27.372Z,83.82
2023-05-21T23:02:56.437Z,83.69
2023-05-21T23:05:25.275Z,83.91
2023-05-21T23:07:54.352Z,83.77
2023-05-21T23:10:24.514Z,83.88
2023-05-21T23:12:54.298Z,83.54
2023-05-21T23:15:24.813Z,83.53
2023-05-21T23:17:53.710Z,83.26
2023-05-21T23:20:22.933Z,83.25
2023-05-21T23:22:51.939Z,82.96
2023-05-21T23:25:20.739Z,83.12
2023-05-21T23:27:51.286Z,83.12
2023-05-21T23:30:20.604Z,83.25
2023-05-21T23:32:49.446Z,83.13
2023-05-21T23:35:18.548Z,83.06
2023-05-21T23:37:47.351Z,83.04
2023-05-21T23:40:16.567Z,82.85
2023-05-21T23:42:45.457Z,82.83
2023-05-21T23:45:17.501Z,82.86
2023-05-21T23:47:46.796Z,83.09
2023-05-21T23:50:15.654Z,82.95
2023-05-21T23:52:44.910Z,82.85
2023-05-21T23:55:15.150Z,82.55
2023-05-21T23:57:44.074Z,82.37
